Redwood National Park, CA

1:48 PM PDT op 25 september 2016 (GMT -0700)
MAP | | Change Station

Hoogte 68 ft 40.88 °N, 124.07 °W | Updated 48 minutes ago

Clear
Helder
78 °F
Voelt als 79 °F
N
1
Wind Variabel Wind van NNO
Gusts 0.0 mijl/u

Vandaag
Hoog -- | Laag -- °F
--% Kans op neerslag
Gisteren
Hoog -- | Laag -- °F
Precip. -- inches
Druk 30.07 inches
Zicht 10.0 mijlen
Wolken Helder
Warmteindex 79 °F
Dauwpunt 57 °F
Vochtigheid 49%
Neerslag inches
Dikte sneeuw Niet beschikbaar.
7:07 AM 7:07 PM
Afnemende halvemaan, 25% visible
METAR KACV 251953Z AUTO VRB03KT 10SM CLR 25/12 A3006 RMK AO2 SLP183 T02500117
Druk 30.07 inches
Zicht 10.0 mijlen
Wolken Helder
Warmteindex 79 °F
Dauwpunt 57 °F
Vochtigheid 49%
Neerslag inches
Dikte sneeuw Niet beschikbaar.
7:07 AM 7:07 PM
Afnemende halvemaan, 25% visible
METAR KACV 251953Z AUTO VRB03KT 10SM CLR 25/12 A3006 RMK AO2 SLP183 T02500117

10-Day Weather Forecast

Almanac

Astronomie

Sep. 25, 2016 Opkomst Ondergang
Werkelijke tijd
Burgerlijke schemering
Nautische schemering
Astronomische schemering
Maan
Golflengte van het zichtbare licht
Daglengte
Tomorrow will be .
, % of the Moon is Illuminated

Extremen vandaag

State Highs State Lows

Community

WunderPhotos

Upload Photos

1,941,727 foto’s ge-upload!

WunderBlog® & News

Nearby

Luchtkwaliteit

  Luchtkwaliteit LK-index Verontreinigende stof
Not available.

Dikte sneeuw

Station Depth Geometrische hoogte

Aardbevingen

Stad Distance Mag. Time & Date
Minimum magnitude displayed is 2.5.

Watertemperatuur langs de kust

Plaats Temperatuur

Stations

Nabije weerstations

Locatie station Temp. Gevoelstemperatuur Dauwpunt Vochtigheid Wind Precip. Hoogte Geactualiseerd Type
                   

Watches & Warnings

There are currently no watches in effect.